createdAt,value
2024-02-09T00:00:56.139Z,7.55
2024-02-09T00:05:13.899Z,19.17
2024-02-09T00:09:28.418Z,6.55
2024-02-09T00:13:36.445Z,7.30
2024-02-09T00:17:50.182Z,10.02
2024-02-09T00:21:54.101Z,9.95
2024-02-09T00:25:58.110Z,14.30
2024-02-09T00:30:02.453Z,28.33
2024-02-09T00:34:08.481Z,23.02
2024-02-09T00:38:14.820Z,8.25
2024-02-09T00:42:19.272Z,6.22
2024-02-09T00:46:33.542Z,5.35
2024-02-09T00:50:53.011Z,7.15
2024-02-09T00:55:02.577Z,6.43
2024-02-09T00:59:16.383Z,7.00
2024-02-09T01:03:23.198Z,11.00
2024-02-09T01:07:34.844Z,7.22
2024-02-09T01:11:56.905Z,6.07
2024-02-09T01:16:18.358Z,5.47
2024-02-09T01:20:39.273Z,5.10
2024-02-09T01:25:04.474Z,6.30
2024-02-09T01:29:22.317Z,5.07
2024-02-09T01:33:41.361Z,5.13
2024-02-09T01:38:03.556Z,5.68
2024-02-09T01:42:36.973Z,7.13
2024-02-09T01:47:02.183Z,6.10
2024-02-09T01:51:44.110Z,5.90
2024-02-09T01:56:16.329Z,8.73
2024-02-09T02:01:00.599Z,8.80
2024-02-09T02:05:26.260Z,7.82
2024-02-09T02:09:58.110Z,6.50
2024-02-09T02:14:16.510Z,5.68
2024-02-09T02:18:35.612Z,15.57
2024-02-09T02:22:58.791Z,5.38
2024-02-09T02:27:17.904Z,4.47
2024-02-09T02:31:35.230Z,5.65
2024-02-09T02:36:03.951Z,8.48
2024-02-09T02:40:32.697Z,5.72
2024-02-09T02:44:34.177Z,4.93
2024-02-09T02:53:13.353Z,8.13
2024-02-09T02:57:31.222Z,7.82
2024-02-09T03:01:48.639Z,18.05
2024-02-09T03:05:55.959Z,11.82
2024-02-09T03:10:03.031Z,10.45
2024-02-09T03:14:06.739Z,12.25
2024-02-09T03:18:08.168Z,25.73
2024-02-09T03:22:08.648Z,14.73
2024-02-09T03:26:11.769Z,14.95
2024-02-09T03:30:13.703Z,17.38
2024-02-09T03:34:17.467Z,15.30
2024-02-09T03:38:20.992Z,17.45
2024-02-09T03:42:24.809Z,17.25
2024-02-09T03:46:29.042Z,20.30
2024-02-09T03:50:41.378Z,11.93
2024-02-09T03:54:41.748Z,12.93
2024-02-09T03:58:46.438Z,16.08
2024-02-09T04:02:50.756Z,10.60
2024-02-09T04:06:54.208Z,8.23
2024-02-09T04:10:58.255Z,6.35
2024-02-09T04:15:01.176Z,5.40
2024-02-09T04:19:01.278Z,5.18
2024-02-09T04:23:05.351Z,4.75
2024-02-09T04:27:10.285Z,4.60
2024-02-09T04:31:17.319Z,4.72
2024-02-09T04:35:18.387Z,4.72
2024-02-09T04:39:19.991Z,4.50
2024-02-09T04:43:24.390Z,6.53
2024-02-09T04:47:28.157Z,18.17
2024-02-09T04:51:34.647Z,39.83
2024-02-09T04:55:35.957Z,6.40
2024-02-09T04:59:46.080Z,5.55
2024-02-09T05:03:48.998Z,5.60
2024-02-09T05:07:49.445Z,10.52
2024-02-09T05:11:50.009Z,8.95
2024-02-09T05:16:04.207Z,11.00
2024-02-09T05:20:11.197Z,8.48
2024-02-09T05:24:11.582Z,7.00
2024-02-09T05:28:11.748Z,7.63
2024-02-09T05:32:12.027Z,7.22
2024-02-09T05:36:24.648Z,9.00
2024-02-09T05:40:27.887Z,10.73
2024-02-09T05:44:30.727Z,10.73
2024-02-09T05:48:30.974Z,8.20
2024-02-09T05:52:34.015Z,9.80
2024-02-09T05:56:34.408Z,13.90
2024-02-09T06:00:37.183Z,13.07
2024-02-09T06:04:40.096Z,12.20
2024-02-09T06:08:44.257Z,11.50
2024-02-09T06:12:46.014Z,10.73
2024-02-09T06:16:48.649Z,22.65
2024-02-09T06:20:50.115Z,24.45
2024-02-09T06:24:58.889Z,13.15
2024-02-09T06:29:00.069Z,6.55
2024-02-09T06:33:00.864Z,6.80
2024-02-09T06:37:01.192Z,6.57
2024-02-09T06:41:04.287Z,5.53
2024-02-09T06:45:04.636Z,6.78
2024-02-09T06:49:04.840Z,5.97
2024-02-09T06:53:06.606Z,8.55
2024-02-09T06:57:09.988Z,6.00
2024-02-09T07:01:12.193Z,7.63
2024-02-09T07:05:16.865Z,7.38
2024-02-09T07:09:32.864Z,5.40
2024-02-09T07:13:37.107Z,6.00
2024-02-09T07:17:37.933Z,5.88
2024-02-09T07:21:41.990Z,5.22
2024-02-09T07:25:45.220Z,5.28
2024-02-09T07:29:48.041Z,5.50
2024-02-09T07:33:50.441Z,5.60
2024-02-09T07:37:50.875Z,6.50
2024-02-09T07:41:51.134Z,6.28
2024-02-09T07:45:55.098Z,5.60
2024-02-09T07:49:55.372Z,6.22
2024-02-09T07:53:56.079Z,6.13
2024-02-09T07:57:59.425Z,5.85
2024-02-09T08:02:06.337Z,6.82
2024-02-09T08:06:10.474Z,5.05
2024-02-09T08:10:11.607Z,5.15
2024-02-09T08:14:12.178Z,5.68
2024-02-09T08:18:17.421Z,5.93
2024-02-09T08:22:23.729Z,6.18
2024-02-09T08:26:25.517Z,5.38
2024-02-09T08:30:31.593Z,5.88
2024-02-09T08:34:34.225Z,5.47
2024-02-09T08:38:34.742Z,5.60
2024-02-09T08:42:34.784Z,6.32
2024-02-09T08:46:36.563Z,5.70
2024-02-09T08:50:38.688Z,4.97
2024-02-09T08:54:39.207Z,4.78
2024-02-09T08:58:39.382Z,5.07
2024-02-09T09:02:39.654Z,6.28
2024-02-09T09:06:42.323Z,5.72
2024-02-09T09:10:42.981Z,5.80
2024-02-09T09:14:43.099Z,6.05
2024-02-09T09:18:46.730Z,6.53
2024-02-09T09:22:51.801Z,6.03
2024-02-09T09:26:53.086Z,6.63
2024-02-09T09:30:54.745Z,5.70
2024-02-09T09:34:54.952Z,5.18
2024-02-09T09:38:57.279Z,5.78
2024-02-09T09:43:01.425Z,5.45
2024-02-09T09:47:02.803Z,6.00
2024-02-09T09:51:06.121Z,5.20
2024-02-09T09:55:32.517Z,5.63
2024-02-09T09:59:36.255Z,5.47
2024-02-09T10:03:39.575Z,5.30
2024-02-09T10:07:43.240Z,5.32
2024-02-09T10:11:46.293Z,5.68
2024-02-09T10:15:48.470Z,6.65
2024-02-09T10:19:48.478Z,8.48
2024-02-09T10:23:51.726Z,5.10
2024-02-09T10:27:54.644Z,5.82
2024-02-09T10:31:56.574Z,5.43
2024-02-09T10:35:57.881Z,5.13
2024-02-09T10:39:58.102Z,6.30
2024-02-09T10:44:03.732Z,6.70
2024-02-09T10:48:05.886Z,5.53
2024-02-09T10:52:11.810Z,6.78
2024-02-09T10:56:17.293Z,7.47
2024-02-09T11:00:20.098Z,5.97
2024-02-09T11:04:22.220Z,5.93
2024-02-09T11:08:27.784Z,9.13
2024-02-09T11:12:29.321Z,6.03
2024-02-09T11:16:31.690Z,5.95
2024-02-09T11:20:34.478Z,6.28
2024-02-09T11:24:34.617Z,7.07
2024-02-09T11:28:35.363Z,5.50
2024-02-09T11:32:40.558Z,6.53
2024-02-09T11:36:41.706Z,6.78
2024-02-09T11:40:42.202Z,7.30
2024-02-09T11:44:43.898Z,8.40
2024-02-09T11:48:45.534Z,6.70
2024-02-09T11:53:00.604Z,5.95
2024-02-09T11:57:10.041Z,4.85
2024-02-09T12:01:13.349Z,5.22
2024-02-09T12:05:16.597Z,4.13
2024-02-09T12:09:16.979Z,5.70
2024-02-09T12:13:16.848Z,4.70
2024-02-09T12:17:16.869Z,4.53
2024-02-09T12:21:19.898Z,4.18
2024-02-09T12:25:20.421Z,4.95
2024-02-09T12:29:20.487Z,4.47
2024-02-09T12:33:26.604Z,5.15
2024-02-09T12:37:33.914Z,6.38
2024-02-09T12:41:37.713Z,8.00
2024-02-09T12:45:37.188Z,6.30
2024-02-09T12:49:38.080Z,5.22
2024-02-09T12:53:40.330Z,4.30
2024-02-09T12:57:41.961Z,7.25
2024-02-09T13:01:41.991Z,4.38
2024-02-09T13:05:42.439Z,6.80
2024-02-09T13:09:44.974Z,6.15
2024-02-09T13:13:44.724Z,4.63
2024-02-09T13:17:45.258Z,4.95
2024-02-09T13:21:45.952Z,3.92
2024-02-09T13:25:48.446Z,3.55
2024-02-09T13:29:49.674Z,8.45
2024-02-09T13:33:50.173Z,14.45
2024-02-09T13:37:50.639Z,11.90
2024-02-09T13:41:53.025Z,6.47
2024-02-09T13:45:53.189Z,10.13
2024-02-09T13:49:53.171Z,5.82
2024-02-09T13:53:53.512Z,6.80
2024-02-09T13:57:56.170Z,4.60
2024-02-09T14:01:59.609Z,7.13
2024-02-09T14:06:00.168Z,7.60
2024-02-09T14:10:01.444Z,5.43
2024-02-09T14:14:07.182Z,4.47
2024-02-09T14:18:11.443Z,5.15
2024-02-09T14:22:12.007Z,6.50
2024-02-09T14:26:17.170Z,8.57
2024-02-09T14:30:21.628Z,6.18
2024-02-09T14:34:22.237Z,8.48
2024-02-09T14:38:26.275Z,6.05
2024-02-09T14:42:29.635Z,7.10
2024-02-09T14:46:34.028Z,10.18
2024-02-09T14:50:33.919Z,8.80
2024-02-09T14:54:42.572Z,6.57
2024-02-09T15:04:00.843Z,18.38
2024-02-09T15:08:01.548Z,8.85
2024-02-09T15:12:03.560Z,13.50
2024-02-09T15:16:04.044Z,22.65
2024-02-09T15:20:16.443Z,7.50
2024-02-09T15:24:26.434Z,8.55
2024-02-09T15:28:41.300Z,6.53
2024-02-09T15:33:04.538Z,6.28
2024-02-09T15:37:34.626Z,6.82
2024-02-09T15:42:03.236Z,7.80
2024-02-09T15:46:31.431Z,7.32
2024-02-09T15:50:56.530Z,8.13
2024-02-09T15:55:35.420Z,9.37
2024-02-09T15:59:46.990Z,10.10
2024-02-09T16:03:58.229Z,10.27
2024-02-09T16:08:11.750Z,11.57
2024-02-09T16:12:46.615Z,19.00
2024-02-09T16:17:13.772Z,10.68
2024-02-09T16:21:47.476Z,24.65
2024-02-09T16:26:05.957Z,13.93
2024-02-09T16:35:46.993Z,10.60
2024-02-09T16:39:52.858Z,15.13
2024-02-09T16:43:56.935Z,13.43
2024-02-09T16:48:09.364Z,11.02
2024-02-09T16:52:12.694Z,16.60
2024-02-09T16:56:14.897Z,11.90
2024-02-09T17:00:36.809Z,15.30
2024-02-09T17:05:06.560Z,74.90
2024-02-09T17:09:23.289Z,30.58
2024-02-09T17:17:38.853Z,25.27
2024-02-09T17:21:49.934Z,20.25
2024-02-09T17:25:59.567Z,14.38
2024-02-09T17:30:06.265Z,12.07
2024-02-09T17:34:12.670Z,11.23
2024-02-09T17:38:40.374Z,12.93
2024-02-09T17:42:54.689Z,39.67
2024-02-09T17:47:03.019Z,41.58
2024-02-09T17:51:14.032Z,96.97
2024-02-09T17:55:17.090Z,129.20
2024-02-09T17:59:21.232Z,25.30
2024-02-09T18:03:28.151Z,127.28
2024-02-09T18:07:30.279Z,34.17
2024-02-09T18:11:30.817Z,16.33
2024-02-09T18:15:34.695Z,35.20
2024-02-09T18:19:39.970Z,15.60
2024-02-09T18:23:41.243Z,21.90
2024-02-09T18:27:41.889Z,28.27
2024-02-09T18:31:48.045Z,42.92
2024-02-09T18:35:49.838Z,37.58
2024-02-09T18:39:58.617Z,40.97
2024-02-09T18:44:00.475Z,40.00
2024-02-09T18:48:10.150Z,39.97
2024-02-09T18:52:17.305Z,40.08
2024-02-09T18:56:18.123Z,37.80
2024-02-09T19:00:20.238Z,28.08
2024-02-09T19:04:22.903Z,28.85
2024-02-09T19:08:25.136Z,34.17
2024-02-09T19:12:28.411Z,73.70
2024-02-09T19:16:37.020Z,87.10
2024-02-09T19:20:40.225Z,91.18
2024-02-09T19:24:45.255Z,111.82
2024-02-09T19:28:47.129Z,81.80
2024-02-09T19:32:48.252Z,63.40
2024-02-09T19:36:53.998Z,61.22
2024-02-09T19:40:55.717Z,48.15
2024-02-09T19:44:56.819Z,124.95
2024-02-09T19:48:57.469Z,44.90
2024-02-09T19:52:59.543Z,84.75
2024-02-09T19:57:05.736Z,69.18
2024-02-09T20:01:08.609Z,88.80
2024-02-09T20:05:17.377Z,70.45
2024-02-09T20:09:20.079Z,67.50
2024-02-09T20:13:21.745Z,114.68
2024-02-09T20:17:23.928Z,65.50
2024-02-09T20:21:25.581Z,59.75
2024-02-09T20:25:29.920Z,58.22
2024-02-09T20:29:32.245Z,45.85
2024-02-09T20:33:35.790Z,39.00
2024-02-09T20:37:36.736Z,41.30
2024-02-09T20:41:40.034Z,44.33
2024-02-09T20:45:40.975Z,41.13
2024-02-09T20:49:44.217Z,40.90
2024-02-09T20:53:50.099Z,33.72
2024-02-09T20:57:55.411Z,41.53
2024-02-09T21:01:56.891Z,52.03
2024-02-09T21:05:59.305Z,41.38
2024-02-09T21:10:05.894Z,40.40
2024-02-09T21:14:12.043Z,117.05
2024-02-09T21:18:12.837Z,46.55
2024-02-09T21:22:17.664Z,62.67
2024-02-09T21:26:20.887Z,109.05
2024-02-09T21:30:27.120Z,32.67
2024-02-09T21:34:27.956Z,22.65
2024-02-09T21:38:29.542Z,19.35
2024-02-09T21:42:30.542Z,42.67
2024-02-09T21:46:33.457Z,41.05
2024-02-09T21:50:36.156Z,53.75
2024-02-09T21:54:37.074Z,56.80
2024-02-09T21:58:41.960Z,41.50
2024-02-09T22:02:45.678Z,38.58
2024-02-09T22:06:46.524Z,36.50
2024-02-09T22:10:47.266Z,27.77
2024-02-09T22:14:53.131Z,24.88
2024-02-09T22:18:58.601Z,24.67
2024-02-09T22:23:01.793Z,25.17
2024-02-09T22:27:03.802Z,22.33
2024-02-09T22:31:05.163Z,23.40
2024-02-09T22:35:15.896Z,21.02
2024-02-09T22:39:21.644Z,21.23
2024-02-09T22:43:34.175Z,27.85
2024-02-09T22:47:34.973Z,25.63
2024-02-09T22:51:38.011Z,37.85
2024-02-09T22:55:41.682Z,36.85
2024-02-09T22:59:46.789Z,27.77
2024-02-09T23:03:52.120Z,27.13
2024-02-09T23:07:56.599Z,24.35
2024-02-09T23:11:57.860Z,24.60
2024-02-09T23:15:59.032Z,26.73
2024-02-09T23:20:01.242Z,22.25
2024-02-09T23:24:04.068Z,18.00
2024-02-09T23:28:09.158Z,17.30
2024-02-09T23:32:11.869Z,15.40
2024-02-09T23:36:12.570Z,19.50
2024-02-09T23:40:25.879Z,19.50
2024-02-09T23:44:34.031Z,20.88
2024-02-09T23:48:40.490Z,14.55
2024-02-09T23:52:44.595Z,16.05
2024-02-09T23:56:53.998Z,15.57
